Nearby METAR Reports

 

NZCH - Christchurch Int, New Zealand
Distance from station: W 10km
Updated: 15 Jul 2024 18:00
Mostly cloudy
Mostly cloudy
 Wind from E
Wind: E 4 km/h
Temperature: 7°C
Dew Point: 7°C
Humidity: 100%
Barometer: 1013 hPa
Clouds: Mostly cloudy
Visibility: 6 km
Cloud details: Few Clouds 152 m
Mostly cloudy 914 m
2024/07/15 06:00 NZCH 150600Z AUTO 08002KT 6000 FEW005/// BKN030/// 07/07 Q1013